Time;durP1;ratioP1;P1;durP2;ratioP2;P2;SDS_P1;SDS_P2;PMS_P1;PMS_P2;Temp;Humidity;BMP_temperature;BMP_pressure;BME280_temperature;BME280_humidity;BME280_pressure;Samples;Min_cycle;Max_cycle;Signal;HPM_P1;HPM_P2
2023/08/25 00:00:55;;;;;;;74.57;19.40;;;19.10;27.90;;;;;;5024674;28;20415;-81
2023/08/25 00:03:20;;;;;;;59.77;18.57;;;19.10;25.20;;;;;;5032187;28;20419;-81
2023/08/25 00:06:09;;;;;;;59.63;17.77;;;19.10;23.60;;;;;;5027929;28;20431;-81
2023/08/25 00:08:51;;;;;;;58.27;17.47;;;19.00;23.40;;;;;;5025604;28;20202;-80
2023/08/25 00:11:21;;;;;;;68.33;18.30;;;19.00;21.80;;;;;;5028405;28;20478;-80
2023/08/25 00:14:15;;;;;;;68.17;18.40;;;18.90;23.50;;;;;;5029998;28;20438;-82
2023/08/25 00:16:57;;;;;;;76.33;18.20;;;18.90;24.60;;;;;;5032437;28;20573;-81
2023/08/25 00:19:34;;;;;;;79.90;18.03;;;18.80;23.80;;;;;;5014240;28;20446;-80
2023/08/25 00:22:15;;;;;;;69.43;17.40;;;18.90;22.70;;;;;;5031304;28;20849;-81
2023/08/25 00:24:56;;;;;;;58.20;17.07;;;18.80;25.80;;;;;;5020279;28;20448;-81
2023/08/25 00:27:39;;;;;;;61.90;18.00;;;18.90;24.70;;;;;;5032070;28;20881;-80
2023/08/25 00:30:11;;;;;;;65.00;18.90;;;18.80;22.70;;;;;;5032910;28;20814;-81
2023/08/25 00:32:45;;;;;;;71.70;18.90;;;18.80;24.80;;;;;;5032846;28;20781;-80
2023/08/25 00:35:21;;;;;;;81.80;19.27;;;18.80;28.40;;;;;;5021425;28;20454;-80
2023/08/25 00:37:51;;;;;;;73.47;18.70;;;18.80;29.50;;;;;;5024083;28;20760;-81
2023/08/25 00:40:21;;;;;;;68.57;19.70;;;18.70;31.90;;;;;;5031077;28;20944;-81
2023/08/25 00:42:51;;;;;;;67.20;18.80;;;18.70;34.10;;;;;;5032434;28;20403;-80
2023/08/25 00:45:39;;;;;;;70.37;18.83;;;18.70;30.20;;;;;;5036839;28;20909;-80
2023/08/25 00:48:07;;;;;;;64.50;18.70;;;18.70;33.60;;;;;;5035847;28;20447;-80
2023/08/25 00:50:34;;;;;;;66.30;18.30;;;18.70;28.80;;;;;;5032666;28;20430;-80
2023/08/25 00:53:22;;;;;;;62.27;18.20;;;18.60;29.50;;;;;;5031620;28;20815;-80
2023/08/25 00:55:55;;;;;;;65.03;18.00;;;18.60;29.90;;;;;;5036757;28;20803;-80
2023/08/25 00:58:51;;;;;;;70.60;19.97;;;18.50;29.40;;;;;;5034841;28;20503;-81
2023/08/25 01:01:34;;;;;;;75.97;18.93;;;18.60;33.60;;;;;;5036292;28;20397;-80
2023/08/25 01:04:00;;;;;;;74.90;20.13;;;18.60;31.00;;;;;;5036638;28;20399;-81
2023/08/25 01:06:33;;;;;;;67.90;18.50;;;18.60;29.50;;;;;;5027063;28;20422;-80
2023/08/25 01:09:12;;;;;;;64.97;20.60;;;18.60;32.70;;;;;;5033216;28;20215;-81
2023/08/25 01:11:58;;;;;;;78.40;22.00;;;18.60;34.40;;;;;;5036015;28;20423;-81
2023/08/25 01:14:50;;;;;;;83.07;23.10;;;18.60;37.30;;;;;;5034659;28;20453;-81
2023/08/25 01:17:48;;;;;;;73.60;18.93;;;18.60;41.20;;;;;;5036300;28;20391;-81
2023/08/25 01:20:15;;;;;;;87.17;21.10;;;18.60;43.00;;;;;;5037297;28;20418;-81
2023/08/25 01:23:15;;;;;;;81.07;20.50;;;18.50;43.50;;;;;;5032723;28;20411;-81
2023/08/25 01:25:42;;;;;;;76.07;20.13;;;18.40;46.20;;;;;;5026170;28;20384;-81
2023/08/25 01:28:21;;;;;;;91.90;22.80;;;18.40;46.20;;;;;;5036042;28;20451;-81
2023/08/25 01:31:21;;;;;;;77.63;22.47;;;18.40;49.50;;;;;;5031827;28;20433;-81
2023/08/25 01:34:21;;;;;;;82.77;24.10;;;18.40;49.60;;;;;;5020222;28;20425;-80
2023/08/25 01:37:23;;;;;;;83.30;24.37;;;18.40;49.60;;;;;;5019279;28;20451;-81
2023/08/25 01:40:00;;;;;;;94.03;24.30;;;18.40;49.50;;;;;;4999387;28;20497;-82
2023/08/25 01:42:57;;;;;;;89.90;25.60;;;18.40;49.40;;;;;;5010051;28;20761;-81
2023/08/25 01:45:28;;;;;;;81.20;24.50;;;18.50;46.30;;;;;;5005693;28;20430;-81
2023/08/25 01:47:56;;;;;;;92.30;24.77;;;18.50;49.60;;;;;;5002536;28;20451;-80
2023/08/25 01:50:27;;;;;;;93.30;26.17;;;18.50;46.30;;;;;;5001868;28;20434;-81
2023/08/25 01:53:09;;;;;;;85.70;26.53;;;18.50;49.60;;;;;;5009748;28;20434;-81
2023/08/25 01:55:51;;;;;;;83.83;26.10;;;18.60;46.40;;;;;;5011085;28;20482;-81
2023/08/25 01:58:21;;;;;;;113.17;32.30;;;18.60;49.70;;;;;;5003522;28;20807;-80
2023/08/25 02:00:51;;;;;;;98.43;28.97;;;18.60;49.60;;;;;;5012615;28;20921;-80
2023/08/25 02:03:27;;;;;;;110.27;32.10;;;18.60;46.40;;;;;;5001730;28;20451;-81
2023/08/25 02:05:57;;;;;;;110.00;29.73;;;18.70;50.00;;;;;;5003717;28;20902;-80
2023/08/25 02:08:39;;;;;;;109.30;29.00;;;18.70;49.70;;;;;;5002671;28;20397;-81
2023/08/25 02:11:09;;;;;;;105.57;29.30;;;18.70;49.70;;;;;;5005914;28;20523;-80
2023/08/25 02:13:51;;;;;;;100.77;28.00;;;18.80;49.80;;;;;;5011996;28;20429;-81
2023/08/25 02:16:17;;;;;;;142.77;32.73;;;18.80;49.80;;;;;;5020741;28;20445;-81
2023/08/25 02:18:45;;;;;;;120.73;30.53;;;18.90;50.10;;;;;;5029168;28;20472;-81
2023/08/25 02:21:16;;;;;;;115.37;29.37;;;18.90;46.70;;;;;;5028040;28;20171;-81
2023/08/25 02:23:41;;;;;;;129.77;34.10;;;18.90;50.00;;;;;;5034498;28;20924;-81
2023/08/25 02:26:09;;;;;;;188.97;36.90;;;19.00;50.00;;;;;;5028786;28;20447;-81
2023/08/25 02:28:45;;;;;;;186.47;34.63;;;19.10;46.80;;;;;;5022742;28;20208;-80
2023/08/25 02:31:21;;;;;;;202.40;41.50;;;19.20;46.90;;;;;;5033976;28;20917;-80
2023/08/25 02:33:51;;;;;;;229.00;39.17;;;19.20;50.50;;;;;;5033639;28;20407;-80
2023/08/25 02:36:27;;;;;;;261.63;43.67;;;19.30;50.20;;;;;;5031652;28;20971;-81
2023/08/25 02:38:57;;;;;;;193.47;39.90;;;19.40;47.10;;;;;;5033333;28;20996;-80
2023/08/25 02:41:39;;;;;;;520.43;53.17;;;19.40;47.10;;;;;;5034085;28;20958;-81
2023/08/25 02:44:21;;;;;;;178.33;39.67;;;19.50;50.80;;;;;;5033839;28;20426;-81
2023/08/25 02:46:51;;;;;;;328.57;41.23;;;19.60;50.60;;;;;;5028081;28;20427;-81
2023/08/25 02:49:21;;;;;;;171.47;37.27;;;19.60;50.80;;;;;;5020411;28;20422;-80
2023/08/25 02:52:21;;;;;;;266.47;42.27;;;19.70;47.40;;;;;;5014750;28;20423;-80
2023/08/25 02:55:09;;;;;;;137.03;37.20;;;19.70;50.70;;;;;;5022050;28;20452;-80
2023/08/25 02:57:40;;;;;;;145.20;35.80;;;19.80;47.50;;;;;;5029932;28;20977;-80
2023/08/25 03:00:07;;;;;;;147.33;34.80;;;19.80;50.80;;;;;;5028580;28;20962;-80
2023/08/25 03:02:33;;;;;;;142.80;34.03;;;19.90;50.80;;;;;;5034181;28;20412;-80
2023/08/25 03:05:04;;;;;;;147.67;34.80;;;20.00;47.60;;;;;;5032778;28;20400;-80
2023/08/25 03:07:51;;;;;;;160.77;36.27;;;20.00;51.10;;;;;;5026073;28;20178;-81
2023/08/25 03:10:17;;;;;;;124.23;34.70;;;20.10;47.70;;;;;;5029617;28;20432;-81
2023/08/25 03:12:45;;;;;;;133.33;35.13;;;20.20;47.80;;;;;;5024461;28;20432;-81
2023/08/25 03:15:15;;;;;;;148.03;35.70;;;20.10;51.00;;;;;;5035406;28;20199;-81
2023/08/25 03:17:45;;;;;;;153.43;35.17;;;20.20;51.00;;;;;;5034060;28;20471;-81
2023/08/25 03:20:21;;;;;;;190.43;39.30;;;20.20;51.00;;;;;;5029661;28;20411;-80
2023/08/25 03:23:21;;;;;;;150.90;37.63;;;20.20;51.00;;;;;;5029605;28;20431;-80
2023/08/25 03:25:46;;;;;;;161.57;37.03;;;20.30;47.90;;;;;;5014338;28;20408;-80
2023/08/25 03:28:15;;;;;;;126.13;34.27;;;20.40;48.00;;;;;;5028802;28;20577;-81
2023/08/25 03:30:52;;;;;;;139.47;36.43;;;20.40;51.30;;;;;;5030062;28;20633;-81
2023/08/25 03:33:27;;;;;;;136.53;36.17;;;20.40;48.00;;;;;;5023551;28;20403;-82
2023/08/25 03:35:57;;;;;;;134.47;37.83;;;20.40;48.00;;;;;;5014253;28;20807;-81
2023/08/25 03:38:45;;;;;;;124.43;34.87;;;20.40;51.30;;;;;;5032152;28;20422;-81
2023/08/25 03:41:15;;;;;;;118.80;34.60;;;20.40;51.20;;;;;;5035226;28;20431;-81
2023/08/25 03:43:41;;;;;;;146.37;39.20;;;20.50;47.90;;;;;;5032232;28;20438;-80
2023/08/25 03:46:27;;;;;;;149.43;37.87;;;20.50;49.50;;;;;;5029646;28;20414;-80
2023/08/25 03:49:03;;;;;;;161.23;37.87;;;20.50;48.10;;;;;;5023162;28;20989;-80
2023/08/25 03:51:39;;;;;;;159.70;39.07;;;20.50;48.10;;;;;;5022152;28;20463;-80
2023/08/25 03:54:21;;;;;;;146.43;37.80;;;20.50;41.90;;;;;;5019055;28;20439;-80
2023/08/25 03:56:51;;;;;;;141.40;35.77;;;20.50;45.40;;;;;;5014497;28;20846;-80
2023/08/25 03:59:21;;;;;;;152.37;37.00;;;20.50;51.30;;;;;;5020200;28;20451;-81
2023/08/25 04:02:09;;;;;;;149.97;37.47;;;20.60;48.20;;;;;;5032497;28;20398;-81
2023/08/25 04:05:03;;;;;;;159.93;37.23;;;20.60;51.50;;;;;;5038017;28;20428;-81
2023/08/25 04:07:39;;;;;;;136.60;35.80;;;20.60;46.40;;;;;;5044310;28;20433;-81
2023/08/25 04:10:09;;;;;;;131.90;37.60;;;20.60;48.30;;;;;;5026586;28;20916;-80
2023/08/25 04:12:57;;;;;;;129.93;39.03;;;20.70;49.40;;;;;;5022985;28;20463;-81
2023/08/25 04:15:39;;;;;;;143.07;35.77;;;20.70;42.40;;;;;;5032756;28;20459;-80
2023/08/25 04:18:09;;;;;;;148.37;35.03;;;20.70;40.20;;;;;;5031814;28;20424;-80
2023/08/25 04:20:35;;;;;;;154.23;35.23;;;20.70;44.40;;;;;;5024758;28;20435;-81
2023/08/25 04:23:24;;;;;;;145.60;36.47;;;20.70;41.40;;;;;;5036982;28;20407;-80
2023/08/25 04:25:50;;;;;;;128.77;32.27;;;20.80;33.90;;;;;;5026441;28;20581;-80
2023/08/25 04:31:45;;;;;;;125.97;34.60;;;20.80;38.60;;;;;;5030893;28;20429;-80
2023/08/25 04:34:15;;;;;;;123.97;36.27;;;20.80;35.60;;;;;;5030458;28;20795;-80
2023/08/25 04:36:45;;;;;;;126.03;35.30;;;20.80;36.70;;;;;;5022851;28;20844;-80
2023/08/25 04:39:15;;;;;;;139.57;37.50;;;20.80;34.10;;;;;;5018248;28;21004;-80
2023/08/25 04:41:46;;;;;;;133.17;33.93;;;20.80;37.80;;;;;;5030825;28;20502;-80
2023/08/25 04:44:11;;;;;;;137.17;32.30;;;20.90;38.40;;;;;;5024092;28;20409;-80
2023/08/25 04:46:45;;;;;;;126.40;33.30;;;20.90;40.00;;;;;;5027487;28;20490;-81
2023/08/25 04:49:15;;;;;;;137.13;37.93;;;21.00;35.60;;;;;;5033226;28;20547;-81
2023/08/25 04:51:51;;;;;;;140.40;39.57;;;20.90;39.00;;;;;;5027635;28;20928;-83
2023/08/25 04:54:27;;;;;;;148.57;42.33;;;20.80;35.50;;;;;;5035360;28;20816;-83
2023/08/25 04:57:09;;;;;;;164.37;42.20;;;20.60;51.50;;;;;;5034373;28;20443;-83
2023/08/25 04:59:51;;;;;;;165.90;44.97;;;20.60;51.40;;;;;;5027344;28;20473;-80
2023/08/25 05:02:57;;;;;;;161.80;43.60;;;20.70;51.40;;;;;;5020512;28;20906;-81
2023/08/25 05:05:57;;;;;;;155.27;41.77;;;20.80;51.60;;;;;;5036043;28;20406;-80
2023/08/25 05:08:39;;;;;;;157.53;42.77;;;20.80;51.60;;;;;;5028358;28;20437;-81
2023/08/25 05:11:09;;;;;;;145.83;41.87;;;20.80;51.60;;;;;;5030045;28;20492;-81
2023/08/25 05:14:21;;;;;;;154.20;40.80;;;20.80;51.60;;;;;;5033404;28;20430;-81
2023/08/25 05:16:51;;;;;;;149.73;40.90;;;20.80;51.60;;;;;;5031594;28;20520;-80
2023/08/25 05:19:39;;;;;;;123.30;37.90;;;20.70;51.50;;;;;;5036017;28;20764;-81
2023/08/25 05:22:15;;;;;;;120.77;38.20;;;20.80;51.60;;;;;;5035893;28;20888;-80
2023/08/25 05:28:03;;;;;;;132.23;37.23;;;20.90;51.90;;;;;;5022273;28;20414;-81
2023/08/25 05:30:30;;;;;;;110.30;34.17;;;20.90;51.70;;;;;;5030772;28;20417;-81
2023/08/25 05:33:11;;;;;;;110.57;35.00;;;20.90;51.70;;;;;;5031479;28;20406;-80
2023/08/25 05:35:45;;;;;;;98.87;32.70;;;21.00;48.60;;;;;;5034034;28;20427;-81
2023/08/25 05:38:13;;;;;;;109.47;34.40;;;21.00;52.10;;;;;;5033591;28;20920;-80
2023/08/25 05:40:45;;;;;;;102.40;32.87;;;21.00;51.80;;;;;;5030170;28;20424;-81
2023/08/25 05:46:33;;;;;;;100.40;33.90;;;21.00;51.80;;;;;;5019203;28;20815;-84
2023/08/25 05:49:03;;;;;;;93.10;32.10;;;21.00;51.70;;;;;;5029780;28;20453;-84
2023/08/25 05:51:29;;;;;;;102.90;31.43;;;21.10;48.60;;;;;;5034654;28;20425;-84
2023/08/25 05:53:57;;;;;;;104.57;32.47;;;21.00;48.60;;;;;;5016892;28;20424;-84
2023/08/25 05:56:45;;;;;;;102.27;32.63;;;21.00;48.60;;;;;;5028470;28;20203;-84
2023/08/25 05:59:21;;;;;;;101.50;32.73;;;21.00;51.90;;;;;;5024595;28;20453;-84
2023/08/25 06:01:51;;;;;;;101.77;32.83;;;20.90;51.70;;;;;;5026979;28;20420;-84
2023/08/25 06:04:39;;;;;;;97.47;32.30;;;20.80;51.60;;;;;;5034628;28;20388;-84
2023/08/25 06:07:27;;;;;;;102.83;35.50;;;20.80;51.60;;;;;;5032229;28;20437;-84
2023/08/25 06:09:57;;;;;;;109.83;35.50;;;20.80;51.60;;;;;;5025952;28;20401;-84
2023/08/25 06:12:57;;;;;;;106.73;33.53;;;20.70;51.60;;;;;;5030055;28;20414;-84
2023/08/25 06:15:39;;;;;;;101.87;33.63;;;20.70;51.50;;;;;;5042687;28;20460;-82
2023/08/25 06:18:33;;;;;;;98.30;33.20;;;20.70;52.00;;;;;;5038879;28;20394;-80
2023/08/25 06:20:59;;;;;;;97.67;32.77;;;20.70;51.50;;;;;;5034297;28;20417;-80
2023/08/25 06:23:39;;;;;;;101.30;31.60;;;20.70;51.50;;;;;;5034846;28;20534;-81
2023/08/25 06:26:06;;;;;;;94.73;31.87;;;20.70;51.60;;;;;;5027618;28;20695;-81
2023/08/25 06:28:33;;;;;;;99.33;31.87;;;20.80;48.40;;;;;;5018287;28;20413;-81
2023/08/25 06:31:16;;;;;;;109.53;33.03;;;20.80;51.70;;;;;;5021845;28;20434;-83
2023/08/25 06:33:42;;;;;;;107.00;32.63;;;20.80;51.60;;;;;;5030302;28;20384;-84
2023/08/25 06:36:21;;;;;;;100.40;32.00;;;20.80;51.60;;;;;;5024923;28;20838;-83
2023/08/25 06:38:47;;;;;;;100.47;32.50;;;20.90;51.70;;;;;;5017032;28;20669;-83
2023/08/25 06:41:15;;;;;;;105.00;31.47;;;21.00;51.80;;;;;;5025933;28;20414;-83
2023/08/25 06:43:41;;;;;;;100.57;31.10;;;21.00;51.80;;;;;;5014576;28;20164;-84
2023/08/25 06:46:45;;;;;;;96.70;30.17;;;21.10;51.90;;;;;;5028200;28;20421;-84
2023/08/25 06:49:57;;;;;;;88.20;30.23;;;21.20;52.00;;;;;;5024458;28;20195;-84
2023/08/25 06:56:03;;;;;;;79.40;26.80;;;21.70;48.10;;;;;;5026372;28;20464;-84
2023/08/25 06:58:45;;;;;;;86.37;28.37;;;21.90;38.40;;;;;;5032997;28;20425;-84
2023/08/25 07:01:16;;;;;;;76.30;26.33;;;22.20;32.10;;;;;;5030095;28;20433;-80
2023/08/25 07:04:03;;;;;;;76.27;24.97;;;22.40;16.00;;;;;;5017986;28;20832;-81
2023/08/25 07:06:34;;;;;;;67.80;24.20;;;22.50;10.20;;;;;;5027644;28;20528;-81
2023/08/25 07:09:00;;;;;;;70.60;22.50;;;22.70;5.10;;;;;;5036395;28;20430;-81
2023/08/25 07:11:39;;;;;;;71.13;22.90;;;22.80;2.10;;;;;;5025589;28;20998;-81
2023/08/25 07:14:30;;;;;;;73.73;23.17;;;22.90;1.00;;;;;;5022971;28;20184;-80
2023/08/25 07:17:09;;;;;;;67.77;22.30;;;23.00;1.00;;;;;;5027754;28;20420;-81
2023/08/25 07:19:52;;;;;;;66.47;21.70;;;23.00;1.00;;;;;;5033468;28;20782;-80
2023/08/25 07:22:21;;;;;;;64.53;22.00;;;23.00;1.00;;;;;;5028494;28;20399;-81
2023/08/25 07:25:15;;;;;;;61.20;20.77;;;23.00;1.00;;;;;;5025347;28;20468;-81
2023/08/25 07:31:04;;;;;;;66.57;21.00;;;23.00;1.00;;;;;;5014266;28;20460;-80
2023/08/25 07:33:33;;;;;;;63.17;21.80;;;22.90;1.00;;;;;;5029542;28;20971;-81
2023/08/25 07:36:09;;;;;;;62.23;20.63;;;22.90;1.00;;;;;;5023905;28;21023;-80
2023/08/25 07:38:39;;;;;;;61.00;19.23;;;22.90;1.00;;;;;;5030170;28;20463;-80
2023/08/25 07:41:20;;;;;;;65.70;20.57;;;22.90;1.00;;;;;;5027009;28;20419;-81
2023/08/25 07:47:07;;;;;;;55.77;17.90;;;23.00;1.00;;;;;;5019315;28;20524;-85
2023/08/25 07:49:58;;;;;;;59.73;17.37;;;23.10;1.00;;;;;;5014033;28;20464;-85
2023/08/25 07:52:40;;;;;;;57.30;15.07;;;23.20;1.00;;;;;;5029405;28;20519;-84
2023/08/25 07:55:57;;;;;;;64.10;13.43;;;23.30;1.00;;;;;;5023016;28;20511;-84
2023/08/25 07:58:33;;;;;;;57.33;13.30;;;23.20;1.00;;;;;;5025207;28;20794;-83
2023/08/25 08:04:57;;;;;;;49.90;12.87;;;23.00;1.00;;;;;;5017262;28;20457;-84
2023/08/25 08:07:34;;;;;;;51.17;12.60;;;23.10;1.00;;;;;;5019650;28;20412;-84
2023/08/25 08:10:17;;;;;;;51.93;12.30;;;23.10;1.00;;;;;;5019084;28;20432;-84
2023/08/25 08:13:03;;;;;;;48.27;11.53;;;23.00;1.00;;;;;;5025767;28;20419;-85
2023/08/25 08:15:33;;;;;;;50.17;10.93;;;22.80;1.00;;;;;;5018140;28;20463;-80
2023/08/25 08:18:33;;;;;;;50.23;11.10;;;22.80;1.00;;;;;;5024176;28;20440;-80
2023/08/25 08:21:15;;;;;;;46.07;10.23;;;22.70;1.00;;;;;;5027338;28;20431;-80
2023/08/25 08:23:41;;;;;;;45.67;9.40;;;22.80;1.00;;;;;;5020854;28;20954;-81
2023/08/25 08:26:07;;;;;;;45.70;9.90;;;23.00;1.00;;;;;;5030658;28;20428;-81
2023/08/25 08:28:39;;;;;;;51.00;9.67;;;23.20;1.00;;;;;;5032980;28;20657;-81
2023/08/25 08:31:45;;;;;;;52.40;8.60;;;23.40;1.00;;;;;;5031916;28;20208;-80
2023/08/25 08:34:22;;;;;;;42.63;7.97;;;23.50;1.00;;;;;;5028784;28;20475;-80
2023/08/25 08:36:47;;;;;;;44.10;7.03;;;23.60;1.00;;;;;;5024242;28;20901;-80
2023/08/25 08:39:27;;;;;;;44.73;6.60;;;23.50;1.00;;;;;;5014275;28;20441;-81
2023/08/25 08:42:05;;;;;;;42.50;5.50;;;23.70;1.00;;;;;;5018038;28;20178;-79
2023/08/25 08:44:37;;;;;;;44.10;5.90;;;23.80;1.00;;;;;;5020503;28;20521;-80
2023/08/25 08:47:22;;;;;;;40.73;5.50;;;23.90;1.00;;;;;;5019084;28;20447;-83
2023/08/25 08:53:09;;;;;;;41.10;5.10;;;23.80;1.00;;;;;;5023481;28;20474;-84
2023/08/25 08:55:36;;;;;;;39.07;5.50;;;23.70;1.00;;;;;;5018351;28;20457;-83
2023/08/25 08:58:03;;;;;;;41.80;5.13;;;23.80;1.00;;;;;;5018826;28;20928;-84
2023/08/25 09:00:40;;;;;;;38.90;4.63;;;24.00;1.00;;;;;;5026641;28;21067;-81
2023/08/25 09:03:14;;;;;;;41.10;4.60;;;24.30;1.00;;;;;;5019463;28;20943;-81
2023/08/25 09:06:15;;;;;;;40.30;4.80;;;24.80;1.00;;;;;;5033068;28;20936;-78
2023/08/25 09:08:43;;;;;;;39.30;4.93;;;25.10;1.00;;;;;;5032957;28;20452;-78
2023/08/25 09:11:09;;;;;;;39.90;4.37;;;25.30;1.00;;;;;;5025608;28;20951;-80
2023/08/25 09:13:36;;;;;;;36.67;4.50;;;25.40;1.00;;;;;;5020440;28;20415;-80
2023/08/25 09:16:12;;;;;;;44.53;4.43;;;25.30;1.00;;;;;;5026973;28;21055;-79
2023/08/25 09:18:40;;;;;;;37.27;4.00;;;25.00;1.00;;;;;;5035839;28;20425;-79
2023/08/25 09:24:43;;;;;;;37.83;4.70;;;24.90;1.00;;;;;;5030267;28;20473;-80
2023/08/25 09:27:25;;;;;;;38.50;3.80;;;24.80;1.00;;;;;;5029501;28;20406;-80
2023/08/25 09:30:09;;;;;;;38.27;4.40;;;25.10;1.00;;;;;;5027732;28;20434;-79
2023/08/25 09:32:39;;;;;;;38.43;3.87;;;25.10;1.00;;;;;;5033876;28;20440;-84
2023/08/25 09:38:27;;;;;;;39.10;3.90;;;25.20;1.00;;;;;;5016023;28;20406;-83
2023/08/25 09:41:28;;;;;;;37.67;4.00;;;25.10;1.00;;;;;;5031459;28;20418;-84
2023/08/25 09:44:21;;;;;;;40.20;4.70;;;25.20;1.00;;;;;;5034706;28;20261;-84
2023/08/25 09:46:50;;;;;;;37.93;4.50;;;25.40;1.00;;;;;;5030757;28;20404;-85
2023/08/25 09:49:16;;;;;;;43.30;4.20;;;25.30;1.00;;;;;;5023815;28;20459;-84
2023/08/25 09:51:47;;;;;;;39.40;3.10;;;25.40;1.00;;;;;;5021218;28;20433;-84
2023/08/25 09:54:39;;;;;;;36.30;3.77;;;25.70;1.00;;;;;;5029105;28;20175;-83
2023/08/25 09:57:42;;;;;;;37.90;3.73;;;26.00;1.00;;;;;;5017402;28;20940;-84
2023/08/25 10:00:09;;;;;;;37.13;3.93;;;25.90;1.00;;;;;;5031460;28;20453;-84
2023/08/25 10:02:40;;;;;;;39.23;4.50;;;26.20;1.00;;;;;;5026776;28;20923;-84
2023/08/25 10:05:08;;;;;;;35.50;3.83;;;26.10;1.00;;;;;;5030368;28;20488;-84
2023/08/25 10:08:03;;;;;;;40.10;3.90;;;26.50;1.00;;;;;;5025660;28;20415;-84
2023/08/25 10:10:32;;;;;;;46.50;3.67;;;26.70;1.00;;;;;;5033400;28;20527;-84
2023/08/25 10:13:04;;;;;;;41.73;3.90;;;26.60;1.00;;;;;;5028069;28;20423;-84
2023/08/25 10:15:55;;;;;;;40.90;4.37;;;26.70;1.00;;;;;;5021682;28;20479;-84
2023/08/25 10:19:04;;;;;;;36.50;3.77;;;27.10;1.00;;;;;;5034840;28;20938;-83
2023/08/25 10:21:48;;;;;;;37.93;3.40;;;27.00;1.00;;;;;;5034595;28;20416;-83
2023/08/25 10:24:19;;;;;;;36.80;3.70;;;27.70;1.00;;;;;;5031117;28;20486;-83
2023/08/25 10:26:46;;;;;;;35.80;3.63;;;27.80;1.00;;;;;;5028919;28;20428;-83
2023/08/25 10:29:33;;;;;;;34.33;3.47;;;27.80;1.00;;;;;;5022344;28;20427;-83
2023/08/25 10:32:01;;;;;;;36.50;3.63;;;27.80;1.00;;;;;;5029302;28;20878;-80
2023/08/25 10:34:36;;;;;;;32.90;3.10;;;27.70;1.00;;;;;;5019457;28;20498;-81
2023/08/25 10:37:37;;;;;;;33.00;2.97;;;27.60;1.00;;;;;;5024037;28;21001;-80
2023/08/25 10:40:10;;;;;;;36.60;3.00;;;27.00;1.00;;;;;;4995600;28;20440;-80
2023/08/25 10:42:45;;;;;;;36.90;3.37;;;27.00;1.00;;;;;;4999536;28;20868;-80
2023/08/25 10:45:35;;;;;;;34.37;3.50;;;27.30;1.00;;;;;;4992549;28;20862;-81
2023/08/25 10:48:01;;;;;;;32.97;2.97;;;27.30;1.00;;;;;;5006586;28;20452;-80
2023/08/25 10:50:27;;;;;;;35.23;2.90;;;27.30;1.00;;;;;;4995056;28;20450;-80
2023/08/25 10:52:57;;;;;;;38.60;3.43;;;26.90;1.00;;;;;;4990735;28;20439;-80
2023/08/25 10:55:29;;;;;;;32.20;2.90;;;26.90;1.00;;;;;;5008635;28;20479;-80
2023/08/25 10:58:06;;;;;;;34.87;2.97;;;26.70;1.00;;;;;;5008339;28;20865;-81
2023/08/25 11:00:43;;;;;;;33.60;3.33;;;26.70;1.00;;;;;;5007104;28;20434;-80
2023/08/25 11:03:45;;;;;;;33.47;3.03;;;26.80;1.00;;;;;;4994467;28;20432;-80
2023/08/25 11:06:43;;;;;;;33.03;2.83;;;26.80;1.00;;;;;;4995964;28;20478;-80
2023/08/25 11:09:42;;;;;;;32.60;2.90;;;27.00;1.00;;;;;;4948965;28;20486;-80
2023/08/25 11:12:09;;;;;;;33.50;3.57;;;27.30;1.00;;;;;;4896220;29;20437;-80
2023/08/25 11:14:46;;;;;;;34.97;3.10;;;27.40;1.00;;;;;;4914791;29;20456;-80
2023/08/25 11:17:33;;;;;;;33.30;2.80;;;27.60;1.00;;;;;;4924777;29;20435;-83
2023/08/25 11:20:04;;;;;;;35.63;3.10;;;27.60;1.00;;;;;;4921466;29;20427;-83
2023/08/25 11:22:33;;;;;;;35.17;3.00;;;27.60;1.00;;;;;;4930415;29;20954;-83
2023/08/25 11:28:25;;;;;;;31.17;2.37;;;27.80;1.00;;;;;;4927300;29;20453;-83
2023/08/25 11:31:10;;;;;;;32.77;2.73;;;28.00;1.00;;;;;;4915230;29;21523;-83
2023/08/25 11:34:09;;;;;;;32.17;2.50;;;28.00;1.00;;;;;;4930559;29;20442;-84
2023/08/25 11:36:47;;;;;;;36.43;2.83;;;28.20;1.00;;;;;;4932010;29;20525;-84
2023/08/25 11:39:20;;;;;;;32.40;2.63;;;28.40;1.00;;;;;;4918459;29;20526;-84
2023/08/25 11:41:47;;;;;;;36.73;2.30;;;28.50;1.00;;;;;;4927291;29;20510;-83
2023/08/25 11:44:16;;;;;;;36.23;2.40;;;28.50;1.00;;;;;;4925104;29;20440;-84
2023/08/25 11:47:21;;;;;;;31.73;2.60;;;28.30;1.00;;;;;;4982597;28;20462;-81
2023/08/25 11:50:21;;;;;;;33.83;2.50;;;28.00;1.00;;;;;;5028191;28;20470;-83
2023/08/25 11:52:47;;;;;;;31.20;2.53;;;28.10;1.00;;;;;;5017696;28;20442;-85
2023/08/25 11:55:16;;;;;;;37.87;2.87;;;28.40;1.00;;;;;;5023762;28;20462;-84
2023/08/25 11:57:50;;;;;;;33.67;2.43;;;28.70;1.00;;;;;;5027992;28;20220;-86
2023/08/25 12:00:57;;;;;;;36.30;2.80;;;28.90;1.00;;;;;;5023219;28;20422;-85
2023/08/25 12:03:24;;;;;;;33.37;2.80;;;29.00;1.00;;;;;;5045590;28;20438;-80
2023/08/25 12:06:08;;;;;;;32.40;2.70;;;28.90;1.00;;;;;;5031703;28;20937;-80
2023/08/25 12:09:09;;;;;;;32.50;2.37;;;29.10;1.00;;;;;;5024148;28;20421;-81
2023/08/25 12:11:40;;;;;;;33.57;2.30;;;29.10;1.00;;;;;;5018675;28;20950;-80
2023/08/25 12:14:41;;;;;;;37.03;2.53;;;29.20;1.00;;;;;;5033024;28;20414;-80
2023/08/25 12:17:29;;;;;;;37.53;2.60;;;29.60;1.00;;;;;;4979094;28;20489;-81
2023/08/25 12:20:24;;;;;;;34.87;2.80;;;;;;;;;;4990222;28;20437;-81
2023/08/25 12:22:54;;;;;;;32.07;2.90;;;;;;;;;;4977265;28;20430;-80
2023/08/25 12:25:30;;;;;;;32.77;2.90;;;28.80;1.00;;;;;;4972757;28;20433;-80
2023/08/25 12:28:04;;;;;;;41.30;3.00;;;28.60;1.00;;;;;;4983145;28;20541;-80
2023/08/25 12:30:30;;;;;;;32.30;2.80;;;28.70;1.00;;;;;;4978665;28;20529;-78
2023/08/25 12:32:56;;;;;;;32.20;2.53;;;28.50;1.00;;;;;;4991523;28;20424;-78
2023/08/25 12:35:23;;;;;;;31.73;2.70;;;28.70;1.00;;;;;;4960524;28;20476;-78
2023/08/25 12:37:51;;;;;;;32.00;2.43;;;29.10;1.00;;;;;;4985968;28;20566;-79
2023/08/25 12:40:21;;;;;;;32.33;2.10;;;29.10;1.00;;;;;;4981050;28;20441;-80
2023/08/25 12:42:51;;;;;;;31.70;2.90;;;29.20;1.00;;;;;;4977131;28;20452;-83
2023/08/25 12:45:19;;;;;;;37.30;3.17;;;28.90;1.00;;;;;;4968319;28;20447;-81
2023/08/25 12:47:44;;;;;;;40.20;2.70;;;28.90;1.00;;;;;;4983045;28;20439;-82
2023/08/25 12:50:11;;;;;;;32.70;2.80;;;28.70;1.00;;;;;;4982347;28;20514;-83
2023/08/25 12:52:37;;;;;;;31.97;2.67;;;28.40;1.00;;;;;;5022909;28;20558;-83
2023/08/25 12:55:04;;;;;;;33.37;3.20;;;28.20;1.00;;;;;;5030534;28;20492;-84
2023/08/25 12:57:33;;;;;;;32.30;3.00;;;28.30;1.00;;;;;;5017733;28;20188;-85
2023/08/25 12:59:59;;;;;;;33.00;3.70;;;28.40;1.00;;;;;;5022105;28;20465;-84
2023/08/25 13:02:26;;;;;;;31.50;3.00;;;;;;;;;;5034710;28;20603;-80
2023/08/25 13:04:57;;;;;;;34.37;3.47;;;29.00;1.00;;;;;;5023128;28;20187;-78
2023/08/25 13:07:28;;;;;;;41.00;3.50;;;28.90;1.00;;;;;;5025819;28;20457;-79
2023/08/25 13:09:54;;;;;;;33.17;3.00;;;29.40;1.00;;;;;;5029692;28;20442;-79
2023/08/25 13:12:22;;;;;;;35.03;3.30;;;29.70;1.00;;;;;;5030319;28;20457;-79
2023/08/25 13:14:47;;;;;;;35.07;2.87;;;29.80;1.00;;;;;;5032253;28;20180;-80
2023/08/25 13:17:21;;;;;;;36.00;2.83;;;29.90;1.00;;;;;;5031256;28;20430;-81
2023/08/25 13:19:51;;;;;;;32.40;2.70;;;29.60;1.00;;;;;;5033020;28;20187;-80
2023/08/25 13:22:17;;;;;;;36.20;3.07;;;29.60;1.00;;;;;;5028912;28;20511;-79
2023/08/25 13:24:43;;;;;;;34.43;3.60;;;29.90;1.00;;;;;;5025414;28;20502;-79
2023/08/25 13:27:09;;;;;;;33.10;3.60;;;29.90;1.00;;;;;;5017915;28;20191;-79
2023/08/25 13:29:34;;;;;;;34.83;2.97;;;29.70;1.00;;;;;;5030349;28;20647;-78
2023/08/25 13:32:00;;;;;;;33.13;3.90;;;30.00;1.00;;;;;;5031125;28;20547;-78
2023/08/25 13:34:26;;;;;;;31.20;2.90;;;30.00;1.00;;;;;;5035536;28;20178;-78
2023/08/25 13:36:52;;;;;;;32.67;3.27;;;29.70;1.00;;;;;;5020872;28;20288;-78
2023/08/25 13:39:17;;;;;;;33.70;3.67;;;29.70;1.00;;;;;;5029328;28;20176;-80
2023/08/25 13:41:43;;;;;;;34.83;3.27;;;;;;;;;;5016549;28;20184;-80
2023/08/25 13:44:09;;;;;;;34.77;3.17;;;29.70;1.00;;;;;;5023101;28;20187;-79
2023/08/25 13:46:35;;;;;;;32.20;3.00;;;29.50;1.00;;;;;;5023151;28;20477;-79
2023/08/25 13:49:03;;;;;;;34.60;3.23;;;29.80;1.00;;;;;;5024998;28;20458;-80
2023/08/25 13:51:30;;;;;;;36.00;3.13;;;29.90;1.00;;;;;;5025310;28;20329;-79
2023/08/25 13:53:58;;;;;;;30.83;3.10;;;29.90;1.00;;;;;;5025388;28;20430;-80
2023/08/25 13:56:24;;;;;;;39.63;3.00;;;29.80;1.00;;;;;;5014838;28;20468;-82
2023/08/25 13:59:39;;;;;;;32.77;3.37;;;29.80;1.00;;;;;;5021095;28;20989;-81